createdAt,value
2022-09-06T00:00:07.856Z,87.84
2022-09-06T00:02:38.167Z,87.99
2022-09-06T00:05:07.470Z,87.66
2022-09-06T00:07:35.824Z,87.72
2022-09-06T00:10:04.508Z,86.56
2022-09-06T00:12:32.937Z,86.88
2022-09-06T00:15:00.946Z,87.52
2022-09-06T00:17:29.136Z,86.76
2022-09-06T00:19:58.565Z,84.90
2022-09-06T00:22:26.662Z,84.50
2022-09-06T00:24:54.702Z,84.46
2022-09-06T00:27:22.710Z,83.35
2022-09-06T00:29:50.718Z,84.04
2022-09-06T00:32:18.722Z,84.09
2022-09-06T00:34:46.747Z,84.03
2022-09-06T00:37:16.331Z,84.48
2022-09-06T00:39:44.457Z,84.13
2022-09-06T00:42:13.818Z,84.08
2022-09-06T00:44:42.270Z,84.52
2022-09-06T00:47:10.566Z,85.00
2022-09-06T00:49:41.930Z,85.50
2022-09-06T00:52:12.895Z,84.90
2022-09-06T00:54:43.858Z,84.97
2022-09-06T00:57:12.507Z,85.76
2022-09-06T00:59:41.403Z,86.13
2022-09-06T01:02:10.351Z,86.68
2022-09-06T01:04:40.434Z,86.71
2022-09-06T01:07:19.053Z,86.04
2022-09-06T01:10:05.072Z,85.78
2022-09-06T01:12:45.704Z,85.94
2022-09-06T01:15:25.946Z,86.27
2022-09-06T01:18:03.601Z,85.78
2022-09-06T01:20:43.802Z,87.32
2022-09-06T01:23:37.911Z,88.87
2022-09-06T01:26:25.783Z,88.81
2022-09-06T01:28:56.007Z,89.81
2022-09-06T01:31:31.406Z,89.22
2022-09-06T01:34:22.675Z,87.49
2022-09-06T01:37:09.362Z,86.87
2022-09-06T01:39:39.904Z,88.56
2022-09-06T01:42:12.175Z,89.29
2022-09-06T01:44:44.165Z,89.59
2022-09-06T01:47:23.347Z,89.48
2022-09-06T01:50:14.082Z,90.43
2022-09-06T01:52:52.935Z,90.12
2022-09-06T01:55:27.776Z,89.66
2022-09-06T01:58:11.985Z,88.57
2022-09-06T02:00:49.761Z,87.79
2022-09-06T02:03:27.297Z,87.52
2022-09-06T02:05:59.741Z,87.53
2022-09-06T02:08:33.651Z,88.55
2022-09-06T02:11:03.960Z,88.31
2022-09-06T02:13:37.340Z,87.49
2022-09-06T02:16:08.809Z,87.40
2022-09-06T02:18:42.738Z,87.17
2022-09-06T02:21:14.343Z,87.71
2022-09-06T02:23:44.619Z,88.25
2022-09-06T02:26:16.675Z,88.18
2022-09-06T02:28:44.809Z,87.74
2022-09-06T02:31:19.401Z,88.79
2022-09-06T02:33:49.274Z,88.16
2022-09-06T02:36:17.701Z,89.88
2022-09-06T02:38:47.299Z,91.51
2022-09-06T02:41:21.194Z,89.99
2022-09-06T02:43:49.234Z,90.90
2022-09-06T02:46:18.726Z,91.29
2022-09-06T02:48:46.863Z,91.71
2022-09-06T02:51:14.890Z,91.31
2022-09-06T02:53:42.965Z,92.92
2022-09-06T02:56:11.234Z,93.97
2022-09-06T02:58:40.184Z,93.99
2022-09-06T03:01:08.276Z,94.67
2022-09-06T03:03:37.781Z,95.34
2022-09-06T03:06:06.085Z,95.51
2022-09-06T03:08:36.556Z,95.61
2022-09-06T03:11:04.932Z,95.50
2022-09-06T03:13:32.924Z,96.08
2022-09-06T03:16:01.761Z,96.80
2022-09-06T03:18:31.910Z,96.89
2022-09-06T03:21:01.316Z,97.69
2022-09-06T03:23:30.422Z,97.66
2022-09-06T03:25:58.924Z,96.10
2022-09-06T03:28:27.171Z,96.27
2022-09-06T03:30:55.354Z,95.80
2022-09-06T03:33:23.783Z,96.79
2022-09-06T03:35:53.607Z,94.50
2022-09-06T03:38:23.853Z,94.52
2022-09-06T03:40:52.976Z,95.75
2022-09-06T03:43:23.120Z,96.94
2022-09-06T03:45:52.992Z,97.16
2022-09-06T03:48:23.060Z,97.18
2022-09-06T03:50:53.322Z,97.61
2022-09-06T03:53:24.105Z,96.86
2022-09-06T03:55:54.339Z,95.15
2022-09-06T03:58:24.450Z,93.75
2022-09-06T04:01:01.354Z,92.63
2022-09-06T04:03:29.385Z,92.37
2022-09-06T04:05:57.386Z,92.26
2022-09-06T04:08:26.907Z,94.52
2022-09-06T04:10:55.689Z,94.10
2022-09-06T04:13:24.309Z,93.78
2022-09-06T04:15:52.701Z,94.86
2022-09-06T04:18:21.885Z,96.83
2022-09-06T04:20:50.831Z,96.74
2022-09-06T04:23:19.479Z,97.06
2022-09-06T04:25:49.771Z,97.56
2022-09-06T04:28:18.895Z,97.18
2022-09-06T04:30:47.054Z,97.19
2022-09-06T04:33:15.057Z,97.48
2022-09-06T04:35:43.063Z,98.16
2022-09-06T04:38:11.077Z,96.84
2022-09-06T04:40:39.071Z,96.82
2022-09-06T04:43:08.450Z,96.63
2022-09-06T04:45:36.494Z,95.61
2022-09-06T04:48:04.798Z,93.30
2022-09-06T04:50:32.937Z,94.32
2022-09-06T04:53:00.914Z,95.07
2022-09-06T04:55:31.393Z,95.84
2022-09-06T04:58:00.203Z,94.11
2022-09-06T05:00:29.692Z,94.79
2022-09-06T05:02:57.711Z,95.19
2022-09-06T05:05:25.769Z,96.52
2022-09-06T05:07:54.137Z,98.17
2022-09-06T05:10:23.295Z,97.11
2022-09-06T05:12:51.674Z,96.92
2022-09-06T05:15:20.214Z,96.64
2022-09-06T05:17:49.755Z,93.89
2022-09-06T05:20:18.389Z,94.28
2022-09-06T05:22:53.478Z,95.82
2022-09-06T05:25:21.938Z,97.05
2022-09-06T05:27:50.164Z,96.12
2022-09-06T05:30:19.754Z,95.30
2022-09-06T05:32:49.163Z,95.47
2022-09-06T05:35:17.370Z,95.78
2022-09-06T05:37:45.400Z,95.30
2022-09-06T05:40:13.451Z,94.38
2022-09-06T05:42:41.879Z,94.14
2022-09-06T05:45:10.473Z,94.93
2022-09-06T05:47:38.611Z,96.01
2022-09-06T05:50:08.881Z,94.62
2022-09-06T05:52:38.304Z,93.49
2022-09-06T05:55:07.481Z,93.68
2022-09-06T05:57:35.493Z,95.28
2022-09-06T06:00:04.181Z,94.78
2022-09-06T06:02:32.241Z,96.04
2022-09-06T06:05:00.414Z,92.51
2022-09-06T06:07:29.837Z,91.30
2022-09-06T06:09:57.825Z,90.39
2022-09-06T06:12:25.857Z,92.14
2022-09-06T06:14:53.857Z,92.77
2022-09-06T06:17:21.910Z,94.28
2022-09-06T06:19:49.931Z,92.16
2022-09-06T06:22:18.003Z,91.85
2022-09-06T06:24:47.387Z,89.74
2022-09-06T06:27:15.404Z,90.17
2022-09-06T06:29:43.409Z,90.85
2022-09-06T06:32:11.485Z,88.32
2022-09-06T06:34:39.549Z,91.99
2022-09-06T06:37:07.581Z,88.57
2022-09-06T06:39:35.609Z,86.97
2022-09-06T06:42:05.535Z,89.82
2022-09-06T06:44:33.570Z,89.14
2022-09-06T06:47:02.744Z,87.47
2022-09-06T06:49:30.888Z,87.80
2022-09-06T06:51:58.877Z,84.65
2022-09-06T06:54:26.869Z,85.77
2022-09-06T06:56:55.100Z,83.34
2022-09-06T06:59:24.503Z,82.72
2022-09-06T07:01:53.078Z,79.96
2022-09-06T07:04:21.358Z,83.33
2022-09-06T07:12:27.777Z,79.84
2022-09-06T07:14:57.183Z,76.84
2022-09-06T07:17:25.233Z,77.96
2022-09-06T07:22:41.716Z,72.77
2022-09-06T07:25:12.167Z,72.51
2022-09-06T07:30:15.000Z,73.82
2022-09-06T07:32:43.104Z,74.31
2022-09-06T07:35:12.485Z,73.45
2022-09-06T07:37:40.510Z,69.57
2022-09-06T07:40:09.941Z,68.64
2022-09-06T07:42:37.970Z,69.68
2022-09-06T07:45:06.675Z,60.45
2022-09-06T07:53:15.321Z,58.87
2022-09-06T07:55:43.914Z,58.51
2022-09-06T07:58:12.236Z,59.25
2022-09-06T08:00:41.586Z,56.25
2022-09-06T08:03:11.498Z,54.52
2022-09-06T08:11:15.930Z,51.11
2022-09-06T08:13:43.925Z,56.53
2022-09-06T08:16:14.096Z,51.16
2022-09-06T08:18:43.779Z,48.95
2022-09-06T08:21:13.601Z,49.62
2022-09-06T08:23:45.591Z,51.05
2022-09-06T08:26:13.962Z,47.87
2022-09-06T08:28:42.016Z,46.27
2022-09-06T08:31:11.612Z,44.34
2022-09-06T08:33:40.923Z,46.82
2022-09-06T08:36:11.149Z,43.30
2022-09-06T08:38:39.340Z,45.70
2022-09-06T08:41:10.314Z,46.64
2022-09-06T08:43:39.791Z,45.12
2022-09-06T08:46:09.698Z,44.35
2022-09-06T08:48:40.062Z,43.59
2022-09-06T08:51:28.836Z,40.22
2022-09-06T08:54:01.806Z,43.90
2022-09-06T08:56:35.854Z,40.51
2022-09-06T08:59:07.101Z,40.50
2022-09-06T09:01:45.534Z,40.65
2022-09-06T09:04:17.725Z,41.16
2022-09-06T09:06:53.742Z,44.15
2022-09-06T09:09:21.885Z,43.45
2022-09-06T09:11:52.617Z,43.39
2022-09-06T09:14:26.192Z,43.15
2022-09-06T09:16:56.260Z,42.78
2022-09-06T09:19:24.275Z,41.29
2022-09-06T09:21:53.709Z,43.93
2022-09-06T09:24:22.066Z,41.26
2022-09-06T09:26:55.303Z,40.45
2022-09-06T09:29:28.012Z,44.09
2022-09-06T09:31:58.020Z,43.96
2022-09-06T09:34:33.418Z,41.23
2022-09-06T09:40:15.727Z,43.49
2022-09-06T09:42:44.427Z,42.13
2022-09-06T09:45:29.514Z,38.12
2022-09-06T09:47:57.910Z,38.94
2022-09-06T09:50:29.247Z,39.79
2022-09-06T09:53:08.761Z,39.91
2022-09-06T09:55:37.396Z,40.56
2022-09-06T09:58:07.570Z,41.36
2022-09-06T10:00:39.687Z,40.01
2022-09-06T10:03:14.684Z,42.33
2022-09-06T10:05:43.841Z,39.26
2022-09-06T10:08:14.940Z,40.65
2022-09-06T10:10:47.735Z,40.59
2022-09-06T10:13:21.566Z,41.00
2022-09-06T10:15:51.287Z,39.21
2022-09-06T10:18:31.210Z,40.40
2022-09-06T10:21:02.013Z,41.64
2022-09-06T10:26:41.966Z,38.60
2022-09-06T10:29:10.842Z,37.45
2022-09-06T10:32:06.746Z,43.93
2022-09-06T10:35:07.904Z,44.02
2022-09-06T10:37:48.595Z,39.44
2022-09-06T10:40:31.158Z,39.86
2022-09-06T10:43:01.538Z,40.43
2022-09-06T10:45:37.253Z,39.88
2022-09-06T10:48:14.865Z,40.77
2022-09-06T10:50:51.959Z,38.71
2022-09-06T10:53:42.267Z,39.46
2022-09-06T10:56:14.457Z,41.10
2022-09-06T11:01:43.800Z,39.47
2022-09-06T11:04:26.776Z,40.54
2022-09-06T11:06:58.682Z,40.01
2022-09-06T11:09:33.609Z,40.42
2022-09-06T11:12:11.904Z,43.86
2022-09-06T11:14:40.455Z,42.85
2022-09-06T11:17:13.047Z,43.29
2022-09-06T11:19:47.757Z,42.20
2022-09-06T11:22:34.009Z,42.17
2022-09-06T11:25:34.560Z,42.61
2022-09-06T11:28:10.215Z,46.16
2022-09-06T11:30:38.683Z,41.71
2022-09-06T11:33:17.411Z,43.70
2022-09-06T11:35:45.836Z,44.58
2022-09-06T11:38:26.162Z,41.98
2022-09-06T11:41:00.674Z,46.15
2022-09-06T11:43:47.970Z,44.27
2022-09-06T11:46:54.628Z,43.09
2022-09-06T11:49:31.944Z,44.58
2022-09-06T11:52:00.346Z,41.88
2022-09-06T11:54:43.036Z,43.38
2022-09-06T11:57:16.630Z,42.73
2022-09-06T11:59:57.842Z,47.79
2022-09-06T12:02:38.235Z,44.59
2022-09-06T12:05:28.929Z,44.96
2022-09-06T12:08:31.730Z,49.44
2022-09-06T12:11:03.150Z,46.71
2022-09-06T12:13:49.438Z,43.98
2022-09-06T12:16:19.839Z,45.89
2022-09-06T12:19:01.956Z,44.36
2022-09-06T12:21:43.029Z,45.53
2022-09-06T12:24:55.045Z,46.04
2022-09-06T12:27:24.282Z,45.96
2022-09-06T12:29:56.357Z,49.24
2022-09-06T12:32:31.710Z,44.84
2022-09-06T12:37:57.081Z,44.80
2022-09-06T12:40:27.282Z,44.25
2022-09-06T12:42:55.617Z,45.55
2022-09-06T12:45:27.386Z,47.12
2022-09-06T12:48:08.692Z,46.52
2022-09-06T12:50:36.898Z,44.88
2022-09-06T12:53:22.694Z,42.26
2022-09-06T12:56:04.203Z,46.24
2022-09-06T12:58:32.315Z,45.82
2022-09-06T13:01:09.922Z,45.73
2022-09-06T13:03:45.272Z,45.00
2022-09-06T13:06:24.502Z,46.82
2022-09-06T13:08:57.108Z,45.73
2022-09-06T13:11:29.478Z,45.81
2022-09-06T13:13:57.834Z,45.35
2022-09-06T13:16:27.856Z,47.04
2022-09-06T13:19:12.732Z,45.66
2022-09-06T13:21:42.456Z,47.36
2022-09-06T13:24:21.166Z,47.69
2022-09-06T13:26:49.699Z,49.82
2022-09-06T13:29:25.491Z,48.47
2022-09-06T13:31:55.636Z,47.82
2022-09-06T13:34:27.298Z,49.08
2022-09-06T13:37:01.302Z,46.51
2022-09-06T13:39:34.302Z,50.21
2022-09-06T13:42:05.781Z,48.43
2022-09-06T13:44:35.768Z,48.03
2022-09-06T13:47:04.753Z,46.09
2022-09-06T13:49:35.062Z,45.94
2022-09-06T13:52:04.927Z,48.94
2022-09-06T13:54:33.946Z,49.90
2022-09-06T13:57:02.323Z,48.17
2022-09-06T13:59:31.757Z,46.37
2022-09-06T14:02:02.775Z,48.93
2022-09-06T14:04:32.645Z,49.20
2022-09-06T14:07:02.341Z,49.95
2022-09-06T14:09:30.722Z,49.31
2022-09-06T14:12:36.233Z,48.37
2022-09-06T14:15:04.568Z,50.13
2022-09-06T14:17:33.282Z,49.84
2022-09-06T14:20:01.328Z,48.80
2022-09-06T14:22:30.782Z,52.43
2022-09-06T14:24:58.859Z,51.66
2022-09-06T14:27:27.406Z,53.41
2022-09-06T14:29:55.357Z,52.40
2022-09-06T14:32:23.314Z,56.83
2022-09-06T14:34:51.264Z,54.05
2022-09-06T14:37:19.262Z,54.08
2022-09-06T14:40:30.893Z,50.70
2022-09-06T14:43:00.367Z,49.20
2022-09-06T14:45:29.013Z,50.55
2022-09-06T14:47:58.241Z,52.29
2022-09-06T14:50:26.796Z,51.98
2022-09-06T14:52:55.069Z,51.57
2022-09-06T14:55:23.662Z,50.83
2022-09-06T14:57:51.754Z,52.29
2022-09-06T15:00:21.528Z,51.46
2022-09-06T15:02:49.710Z,51.83
2022-09-06T15:05:17.812Z,54.40
2022-09-06T15:07:46.761Z,53.21
2022-09-06T15:10:14.899Z,55.09
2022-09-06T15:12:42.999Z,55.09
2022-09-06T15:15:11.551Z,54.36
2022-09-06T15:17:41.062Z,55.51
2022-09-06T15:20:09.767Z,57.37
2022-09-06T15:22:38.897Z,56.93
2022-09-06T15:25:07.967Z,57.71
2022-09-06T15:27:36.187Z,63.12
2022-09-06T15:30:04.396Z,57.73
2022-09-06T15:32:32.465Z,57.75
2022-09-06T15:35:04.637Z,56.99
2022-09-06T15:37:32.937Z,57.62
2022-09-06T15:40:01.100Z,55.34
2022-09-06T15:42:29.558Z,57.45
2022-09-06T15:44:57.631Z,57.65
2022-09-06T15:47:25.685Z,59.60
2022-09-06T15:49:53.757Z,58.83
2022-09-06T15:52:23.197Z,59.65
2022-09-06T15:55:08.293Z,59.23
2022-09-06T15:57:36.393Z,59.90
2022-09-06T16:00:05.650Z,60.35
2022-09-06T16:02:33.740Z,60.31
2022-09-06T16:05:01.822Z,59.76
2022-09-06T16:07:31.294Z,60.70
2022-09-06T16:09:59.526Z,61.68
2022-09-06T16:12:27.642Z,63.56
2022-09-06T16:14:55.694Z,64.80
2022-09-06T16:17:27.509Z,66.35
2022-09-06T16:19:55.579Z,66.38
2022-09-06T16:22:23.840Z,66.99
2022-09-06T16:24:53.330Z,67.58
2022-09-06T16:27:21.393Z,67.37
2022-09-06T16:29:49.443Z,67.09
2022-09-06T16:32:17.802Z,66.29
2022-09-06T16:34:45.946Z,64.85
2022-09-06T16:37:14.134Z,64.73
2022-09-06T16:39:43.227Z,66.13
2022-09-06T16:42:13.416Z,67.33
2022-09-06T16:44:41.489Z,67.66
2022-09-06T16:47:12.557Z,68.47
2022-09-06T16:49:42.816Z,69.44
2022-09-06T16:52:10.905Z,69.80
2022-09-06T16:54:38.950Z,71.41
2022-09-06T16:57:07.071Z,73.01
2022-09-06T16:59:37.757Z,73.78
2022-09-06T17:02:05.962Z,73.67
2022-09-06T17:04:34.157Z,74.05
2022-09-06T17:07:02.193Z,74.19
2022-09-06T17:09:30.221Z,75.55
2022-09-06T17:11:58.511Z,75.20
2022-09-06T17:14:26.601Z,75.76
2022-09-06T17:17:07.467Z,74.84
2022-09-06T17:19:37.766Z,74.79
2022-09-06T17:22:06.471Z,74.94
2022-09-06T17:24:34.580Z,75.70
2022-09-06T17:27:02.871Z,75.70
2022-09-06T17:29:32.907Z,76.69
2022-09-06T17:32:03.976Z,77.34
2022-09-06T17:34:32.111Z,78.23
2022-09-06T17:37:00.190Z,78.92
2022-09-06T17:39:28.432Z,78.18
2022-09-06T17:41:56.558Z,78.51
2022-09-06T17:44:26.699Z,79.12
2022-09-06T17:47:12.440Z,78.27
2022-09-06T17:49:42.976Z,78.88
2022-09-06T17:52:11.470Z,79.20
2022-09-06T17:54:39.563Z,79.01
2022-09-06T17:57:07.634Z,78.77
2022-09-06T17:59:36.146Z,77.87
2022-09-06T18:02:05.137Z,79.33
2022-09-06T18:04:33.482Z,80.16
2022-09-06T18:07:03.155Z,82.00
2022-09-06T18:09:31.208Z,82.26
2022-09-06T18:11:59.334Z,82.48
2022-09-06T18:14:28.774Z,82.74
2022-09-06T18:16:57.135Z,82.97
2022-09-06T18:19:26.276Z,83.79
2022-09-06T18:21:55.199Z,83.52
2022-09-06T18:24:24.894Z,83.98
2022-09-06T18:26:52.956Z,83.62
2022-09-06T18:29:21.063Z,84.38
2022-09-06T18:31:49.209Z,84.75
2022-09-06T18:34:17.733Z,84.56
2022-09-06T18:36:45.855Z,84.81
2022-09-06T18:39:13.969Z,84.81
2022-09-06T18:42:01.421Z,84.89
2022-09-06T18:44:33.115Z,85.09
2022-09-06T18:47:02.898Z,85.21
2022-09-06T18:49:32.586Z,84.54
2022-09-06T18:52:01.178Z,83.81
2022-09-06T18:54:29.734Z,83.65
2022-09-06T18:57:00.006Z,83.19
2022-09-06T18:59:28.251Z,82.33
2022-09-06T19:01:56.612Z,80.69
2022-09-06T19:04:24.910Z,79.23
2022-09-06T19:06:53.024Z,79.16
2022-09-06T19:09:21.128Z,77.77
2022-09-06T19:11:51.711Z,77.61
2022-09-06T19:14:21.950Z,77.08
2022-09-06T19:16:51.512Z,76.80
2022-09-06T19:19:19.640Z,77.18
2022-09-06T19:21:47.708Z,76.42
2022-09-06T19:24:16.357Z,77.65
2022-09-06T19:26:45.574Z,78.48
2022-09-06T19:29:17.201Z,78.25
2022-09-06T19:31:48.589Z,80.78
2022-09-06T19:34:16.722Z,78.93
2022-09-06T19:36:45.713Z,79.46
2022-09-06T19:39:15.607Z,79.23
2022-09-06T19:41:45.282Z,77.98
2022-09-06T19:44:14.026Z,78.66
2022-09-06T19:46:45.910Z,77.85
2022-09-06T19:49:17.067Z,76.95
2022-09-06T19:51:46.713Z,78.94
2022-09-06T19:54:15.479Z,79.60
2022-09-06T19:56:44.877Z,79.83
2022-09-06T19:59:14.101Z,80.40
2022-09-06T20:01:43.903Z,79.02
2022-09-06T20:04:13.950Z,77.54
2022-09-06T20:06:43.438Z,77.91
2022-09-06T20:09:12.446Z,76.38
2022-09-06T20:11:42.255Z,77.20
2022-09-06T20:14:10.800Z,78.51
2022-09-06T20:16:42.132Z,78.75
2022-09-06T20:19:12.130Z,78.82
2022-09-06T20:21:40.404Z,80.17
2022-09-06T20:24:10.188Z,79.29
2022-09-06T20:26:38.278Z,79.74
2022-09-06T20:29:07.358Z,78.69
2022-09-06T20:31:36.473Z,79.86
2022-09-06T20:34:06.323Z,80.84
2022-09-06T20:36:34.450Z,81.57
2022-09-06T20:39:03.049Z,81.38
2022-09-06T20:41:33.965Z,80.38
2022-09-06T20:44:02.181Z,78.65
2022-09-06T20:46:32.251Z,78.40
2022-09-06T20:49:04.459Z,77.62
2022-09-06T20:51:34.508Z,76.92
2022-09-06T20:54:04.316Z,77.75
2022-09-06T20:56:36.121Z,77.05
2022-09-06T20:59:06.236Z,77.65
2022-09-06T21:01:35.935Z,77.86
2022-09-06T21:04:06.451Z,77.61
2022-09-06T21:06:36.268Z,77.90
2022-09-06T21:09:05.624Z,77.07
2022-09-06T21:11:35.330Z,77.71
2022-09-06T21:14:04.158Z,77.50
2022-09-06T21:16:32.573Z,77.95
2022-09-06T21:19:02.036Z,77.42
2022-09-06T21:21:31.598Z,76.41
2022-09-06T21:24:01.234Z,76.70
2022-09-06T21:26:29.494Z,76.67
2022-09-06T21:28:59.200Z,77.16
2022-09-06T21:31:28.845Z,77.01
2022-09-06T21:33:58.518Z,77.97
2022-09-06T21:36:29.413Z,77.67
2022-09-06T21:38:59.209Z,77.32
2022-09-06T21:41:28.422Z,76.99
2022-09-06T21:43:59.372Z,77.81
2022-09-06T21:46:32.890Z,77.01
2022-09-06T21:49:04.060Z,76.98
2022-09-06T21:51:32.659Z,77.25
2022-09-06T21:54:03.584Z,77.04
2022-09-06T21:56:31.891Z,76.92
2022-09-06T21:59:01.462Z,76.68
2022-09-06T22:01:32.040Z,76.61
2022-09-06T22:04:00.566Z,77.31
2022-09-06T22:06:31.250Z,77.02
2022-09-06T22:09:00.787Z,77.11
2022-09-06T22:11:30.882Z,77.70
2022-09-06T22:14:00.118Z,77.60
2022-09-06T22:16:31.204Z,76.63
2022-09-06T22:18:59.491Z,77.23
2022-09-06T22:21:27.601Z,77.04
2022-09-06T22:23:57.874Z,77.41
2022-09-06T22:26:27.494Z,77.06
2022-09-06T22:28:56.701Z,77.17
2022-09-06T22:31:25.694Z,77.09
2022-09-06T22:33:55.923Z,76.91
2022-09-06T22:36:24.686Z,76.67
2022-09-06T22:38:57.350Z,76.25
2022-09-06T22:41:26.542Z,76.12
2022-09-06T22:43:54.697Z,77.34
2022-09-06T22:46:23.169Z,77.36
2022-09-06T22:48:51.309Z,77.37
2022-09-06T22:51:20.962Z,77.00
2022-09-06T22:53:49.025Z,76.33
2022-09-06T22:56:17.511Z,77.05
2022-09-06T22:58:45.577Z,77.30
2022-09-06T23:01:15.481Z,77.30
2022-09-06T23:03:44.231Z,77.68
2022-09-06T23:06:12.791Z,78.21
2022-09-06T23:08:42.409Z,78.07
2022-09-06T23:11:12.923Z,78.39
2022-09-06T23:13:43.991Z,78.58
2022-09-06T23:16:14.234Z,79.24
2022-09-06T23:18:42.391Z,79.55
2022-09-06T23:21:12.437Z,79.62
2022-09-06T23:23:42.923Z,79.92
2022-09-06T23:26:12.877Z,80.11
2022-09-06T23:28:41.439Z,80.05
2022-09-06T23:31:11.522Z,80.39
2022-09-06T23:33:40.525Z,80.12
2022-09-06T23:36:14.914Z,80.62
2022-09-06T23:38:44.942Z,80.72
2022-09-06T23:41:13.499Z,80.13
2022-09-06T23:43:43.080Z,80.79
2022-09-06T23:46:12.593Z,80.06
2022-09-06T23:48:41.117Z,80.61
2022-09-06T23:51:09.765Z,80.63
2022-09-06T23:53:39.366Z,80.33
2022-09-06T23:56:08.955Z,80.85
2022-09-06T23:58:37.795Z,81.10
